sensor_id;sensor_type;location;lat;lon;timestamp;temperature;humidity
2174;DHT22;1093;51.424;11.764;2023-08-12T00:01:37;18.60;1.40
2174;DHT22;1093;51.424;11.764;2023-08-12T00:04:05;18.60;1.40
2174;DHT22;1093;51.424;11.764;2023-08-12T00:06:31;18.60;1.40
2174;DHT22;1093;51.424;11.764;2023-08-12T00:08:58;18.60;1.40
2174;DHT22;1093;51.424;11.764;2023-08-12T00:11:25;18.50;1.40
2174;DHT22;1093;51.424;11.764;2023-08-12T00:13:52;18.50;1.40
2174;DHT22;1093;51.424;11.764;2023-08-12T00:16:19;18.40;1.40
2174;DHT22;1093;51.424;11.764;2023-08-12T00:18:47;18.40;1.40
2174;DHT22;1093;51.424;11.764;2023-08-12T00:21:13;18.40;1.40
2174;DHT22;1093;51.424;11.764;2023-08-12T00:23:41;18.40;1.40
2174;DHT22;1093;51.424;11.764;2023-08-12T00:26:09;18.30;1.40
2174;DHT22;1093;51.424;11.764;2023-08-12T00:28:35;18.30;1.40
2174;DHT22;1093;51.424;11.764;2023-08-12T00:31:02;18.30;1.40
2174;DHT22;1093;51.424;11.764;2023-08-12T00:33:29;18.20;1.40
2174;DHT22;1093;51.424;11.764;2023-08-12T00:35:58;18.20;1.40
2174;DHT22;1093;51.424;11.764;2023-08-12T00:38:26;18.20;1.40
2174;DHT22;1093;51.424;11.764;2023-08-12T00:40:52;18.20;1.40
2174;DHT22;1093;51.424;11.764;2023-08-12T00:43:18;18.10;1.40
2174;DHT22;1093;51.424;11.764;2023-08-12T00:45:45;18.10;1.40
2174;DHT22;1093;51.424;11.764;2023-08-12T00:48:12;18.10;1.40
2174;DHT22;1093;51.424;11.764;2023-08-12T00:50:39;18.00;1.40
2174;DHT22;1093;51.424;11.764;2023-08-12T00:53:09;18.00;1.40
2174;DHT22;1093;51.424;11.764;2023-08-12T00:55:36;17.90;1.40
2174;DHT22;1093;51.424;11.764;2023-08-12T00:58:03;17.90;1.40
2174;DHT22;1093;51.424;11.764;2023-08-12T01:00:31;17.90;1.40
2174;DHT22;1093;51.424;11.764;2023-08-12T01:02:58;17.90;1.40
2174;DHT22;1093;51.424;11.764;2023-08-12T01:05:26;17.80;1.40
2174;DHT22;1093;51.424;11.764;2023-08-12T01:07:53;17.80;1.40
2174;DHT22;1093;51.424;11.764;2023-08-12T01:10:23;17.80;1.40
2174;DHT22;1093;51.424;11.764;2023-08-12T01:13:00;17.80;1.40
2174;DHT22;1093;51.424;11.764;2023-08-12T01:15:30;17.70;1.40
2174;DHT22;1093;51.424;11.764;2023-08-12T01:17:59;17.70;1.40
2174;DHT22;1093;51.424;11.764;2023-08-12T01:20:27;17.70;1.40
2174;DHT22;1093;51.424;11.764;2023-08-12T01:22:57;17.70;1.40
2174;DHT22;1093;51.424;11.764;2023-08-12T01:25:26;17.70;1.40
2174;DHT22;1093;51.424;11.764;2023-08-12T01:27:53;17.70;1.40
2174;DHT22;1093;51.424;11.764;2023-08-12T01:30:22;17.70;1.40
2174;DHT22;1093;51.424;11.764;2023-08-12T01:32:53;17.60;1.40
2174;DHT22;1093;51.424;11.764;2023-08-12T01:35:26;17.60;1.40
2174;DHT22;1093;51.424;11.764;2023-08-12T01:37:57;17.60;1.40
2174;DHT22;1093;51.424;11.764;2023-08-12T01:40:28;17.60;1.40
2174;DHT22;1093;51.424;11.764;2023-08-12T01:42:55;17.60;1.40
2174;DHT22;1093;51.424;11.764;2023-08-12T01:45:22;17.60;1.40
2174;DHT22;1093;51.424;11.764;2023-08-12T01:47:49;17.60;1.40
2174;DHT22;1093;51.424;11.764;2023-08-12T01:50:17;17.60;1.40
2174;DHT22;1093;51.424;11.764;2023-08-12T01:52:44;17.60;1.40
2174;DHT22;1093;51.424;11.764;2023-08-12T01:55:11;17.50;1.40
2174;DHT22;1093;51.424;11.764;2023-08-12T01:57:39;17.50;1.40
2174;DHT22;1093;51.424;11.764;2023-08-12T02:00:07;17.50;1.40
2174;DHT22;1093;51.424;11.764;2023-08-12T02:02:34;17.50;1.40
2174;DHT22;1093;51.424;11.764;2023-08-12T02:05:01;17.50;1.40
2174;DHT22;1093;51.424;11.764;2023-08-12T02:07:27;17.50;1.40
2174;DHT22;1093;51.424;11.764;2023-08-12T02:09:54;17.50;1.40
2174;DHT22;1093;51.424;11.764;2023-08-12T02:12:21;17.40;1.40
2174;DHT22;1093;51.424;11.764;2023-08-12T02:14:50;17.50;1.40
2174;DHT22;1093;51.424;11.764;2023-08-12T02:17:16;17.40;1.40
2174;DHT22;1093;51.424;11.764;2023-08-12T02:19:43;17.40;1.40
2174;DHT22;1093;51.424;11.764;2023-08-12T02:22:10;17.40;1.40
2174;DHT22;1093;51.424;11.764;2023-08-12T02:24:37;17.40;1.40
2174;DHT22;1093;51.424;11.764;2023-08-12T02:27:05;17.40;1.40
2174;DHT22;1093;51.424;11.764;2023-08-12T02:29:32;17.40;1.40
2174;DHT22;1093;51.424;11.764;2023-08-12T02:32:00;17.40;1.40
2174;DHT22;1093;51.424;11.764;2023-08-12T02:34:27;17.40;1.40
2174;DHT22;1093;51.424;11.764;2023-08-12T02:36:53;17.40;1.40
2174;DHT22;1093;51.424;11.764;2023-08-12T02:39:20;17.40;1.40
2174;DHT22;1093;51.424;11.764;2023-08-12T02:41:47;17.30;1.40
2174;DHT22;1093;51.424;11.764;2023-08-12T02:44:14;17.30;1.40
2174;DHT22;1093;51.424;11.764;2023-08-12T02:46:41;17.30;1.40
2174;DHT22;1093;51.424;11.764;2023-08-12T02:49:09;17.30;1.40
2174;DHT22;1093;51.424;11.764;2023-08-12T02:51:36;17.30;1.40
2174;DHT22;1093;51.424;11.764;2023-08-12T02:54:03;17.30;1.40
2174;DHT22;1093;51.424;11.764;2023-08-12T02:56:29;17.20;1.40
2174;DHT22;1093;51.424;11.764;2023-08-12T02:58:56;17.20;1.40
2174;DHT22;1093;51.424;11.764;2023-08-12T03:01:23;17.20;1.40
2174;DHT22;1093;51.424;11.764;2023-08-12T03:03:51;17.10;1.40
2174;DHT22;1093;51.424;11.764;2023-08-12T03:06:19;17.10;1.40
2174;DHT22;1093;51.424;11.764;2023-08-12T03:08:46;17.10;1.40
2174;DHT22;1093;51.424;11.764;2023-08-12T03:11:13;17.10;1.40
2174;DHT22;1093;51.424;11.764;2023-08-12T03:13:44;17.10;1.40
2174;DHT22;1093;51.424;11.764;2023-08-12T03:16:11;17.10;1.40
2174;DHT22;1093;51.424;11.764;2023-08-12T03:18:39;17.00;1.40
2174;DHT22;1093;51.424;11.764;2023-08-12T03:21:07;17.00;1.40
2174;DHT22;1093;51.424;11.764;2023-08-12T03:23:37;17.00;1.40
2174;DHT22;1093;51.424;11.764;2023-08-12T03:26:04;17.00;1.40
2174;DHT22;1093;51.424;11.764;2023-08-12T03:28:33;16.90;1.40
2174;DHT22;1093;51.424;11.764;2023-08-12T03:31:01;16.90;1.40
2174;DHT22;1093;51.424;11.764;2023-08-12T03:33:28;16.90;1.40
2174;DHT22;1093;51.424;11.764;2023-08-12T03:35:55;16.90;1.40
2174;DHT22;1093;51.424;11.764;2023-08-12T03:38:22;16.90;1.40
2174;DHT22;1093;51.424;11.764;2023-08-12T03:40:58;16.80;1.40
2174;DHT22;1093;51.424;11.764;2023-08-12T03:43:24;16.80;1.40
2174;DHT22;1093;51.424;11.764;2023-08-12T03:45:51;16.80;1.40
2174;DHT22;1093;51.424;11.764;2023-08-12T03:48:18;16.80;1.40
2174;DHT22;1093;51.424;11.764;2023-08-12T03:50:45;16.70;1.40
2174;DHT22;1093;51.424;11.764;2023-08-12T03:53:13;16.70;1.40
2174;DHT22;1093;51.424;11.764;2023-08-12T03:55:39;16.70;1.40
2174;DHT22;1093;51.424;11.764;2023-08-12T03:58:08;16.70;1.40
2174;DHT22;1093;51.424;11.764;2023-08-12T04:00:40;16.70;1.40
2174;DHT22;1093;51.424;11.764;2023-08-12T04:03:08;16.70;1.40
2174;DHT22;1093;51.424;11.764;2023-08-12T04:05:34;16.70;1.40
2174;DHT22;1093;51.424;11.764;2023-08-12T04:08:01;16.70;1.40
2174;DHT22;1093;51.424;11.764;2023-08-12T04:10:28;16.70;1.40
2174;DHT22;1093;51.424;11.764;2023-08-12T04:12:58;16.70;1.40
2174;DHT22;1093;51.424;11.764;2023-08-12T04:15:26;16.70;1.40
2174;DHT22;1093;51.424;11.764;2023-08-12T04:17:53;16.70;1.40
2174;DHT22;1093;51.424;11.764;2023-08-12T04:20:20;16.60;1.40
2174;DHT22;1093;51.424;11.764;2023-08-12T04:22:47;16.60;1.40
2174;DHT22;1093;51.424;11.764;2023-08-12T04:25:14;16.60;1.40
2174;DHT22;1093;51.424;11.764;2023-08-12T04:27:41;16.60;1.40
2174;DHT22;1093;51.424;11.764;2023-08-12T04:30:09;16.60;1.40
2174;DHT22;1093;51.424;11.764;2023-08-12T04:32:37;16.60;1.40
2174;DHT22;1093;51.424;11.764;2023-08-12T04:35:04;16.60;1.40
2174;DHT22;1093;51.424;11.764;2023-08-12T04:37:31;16.60;1.40
2174;DHT22;1093;51.424;11.764;2023-08-12T04:39:58;16.60;1.40
2174;DHT22;1093;51.424;11.764;2023-08-12T04:42:25;16.60;1.40
2174;DHT22;1093;51.424;11.764;2023-08-12T04:44:52;16.60;1.40
2174;DHT22;1093;51.424;11.764;2023-08-12T04:47:19;16.60;1.40
2174;DHT22;1093;51.424;11.764;2023-08-12T04:49:50;16.60;1.40
2174;DHT22;1093;51.424;11.764;2023-08-12T04:52:17;16.70;1.40
2174;DHT22;1093;51.424;11.764;2023-08-12T04:54:46;16.70;1.40
2174;DHT22;1093;51.424;11.764;2023-08-12T04:57:13;16.70;1.40
2174;DHT22;1093;51.424;11.764;2023-08-12T04:59:42;16.80;1.40
2174;DHT22;1093;51.424;11.764;2023-08-12T05:02:09;16.80;1.40
2174;DHT22;1093;51.424;11.764;2023-08-12T05:04:36;16.80;1.40
2174;DHT22;1093;51.424;11.764;2023-08-12T05:07:05;16.90;1.40
2174;DHT22;1093;51.424;11.764;2023-08-12T05:09:31;16.90;1.40
2174;DHT22;1093;51.424;11.764;2023-08-12T05:11:58;16.90;1.40
2174;DHT22;1093;51.424;11.764;2023-08-12T05:14:25;17.00;1.40
2174;DHT22;1093;51.424;11.764;2023-08-12T05:16:52;17.00;1.40
2174;DHT22;1093;51.424;11.764;2023-08-12T05:19:19;17.10;1.40
2174;DHT22;1093;51.424;11.764;2023-08-12T05:21:45;17.10;1.40
2174;DHT22;1093;51.424;11.764;2023-08-12T05:24:13;17.20;1.40
2174;DHT22;1093;51.424;11.764;2023-08-12T05:26:41;17.20;1.40
2174;DHT22;1093;51.424;11.764;2023-08-12T05:29:07;17.30;1.40
2174;DHT22;1093;51.424;11.764;2023-08-12T05:31:34;17.30;1.40
2174;DHT22;1093;51.424;11.764;2023-08-12T05:34:01;17.40;1.40
2174;DHT22;1093;51.424;11.764;2023-08-12T05:36:30;17.50;1.40
2174;DHT22;1093;51.424;11.764;2023-08-12T05:38:57;17.50;1.40
2174;DHT22;1093;51.424;11.764;2023-08-12T05:41:25;17.60;1.40
2174;DHT22;1093;51.424;11.764;2023-08-12T05:43:52;17.70;1.40
2174;DHT22;1093;51.424;11.764;2023-08-12T05:46:19;17.70;1.40
2174;DHT22;1093;51.424;11.764;2023-08-12T05:48:46;17.80;1.40
2174;DHT22;1093;51.424;11.764;2023-08-12T05:51:13;17.90;1.40
2174;DHT22;1093;51.424;11.764;2023-08-12T05:53:40;18.00;1.40
2174;DHT22;1093;51.424;11.764;2023-08-12T05:56:07;18.00;1.40
2174;DHT22;1093;51.424;11.764;2023-08-12T05:58:35;18.10;1.40
2174;DHT22;1093;51.424;11.764;2023-08-12T06:01:02;18.20;1.40
2174;DHT22;1093;51.424;11.764;2023-08-12T06:03:29;18.30;1.40
2174;DHT22;1093;51.424;11.764;2023-08-12T06:05:55;18.40;1.40
2174;DHT22;1093;51.424;11.764;2023-08-12T06:08:22;18.50;1.40
2174;DHT22;1093;51.424;11.764;2023-08-12T06:10:49;18.60;1.40
2174;DHT22;1093;51.424;11.764;2023-08-12T06:13:16;18.70;1.40
2174;DHT22;1093;51.424;11.764;2023-08-12T06:15:44;18.80;1.40
2174;DHT22;1093;51.424;11.764;2023-08-12T06:18:11;18.80;1.40
2174;DHT22;1093;51.424;11.764;2023-08-12T06:20:37;19.00;1.40
2174;DHT22;1093;51.424;11.764;2023-08-12T06:23:04;19.10;1.40
2174;DHT22;1093;51.424;11.764;2023-08-12T06:25:31;19.10;1.40
2174;DHT22;1093;51.424;11.764;2023-08-12T06:27:58;19.30;1.40
2174;DHT22;1093;51.424;11.764;2023-08-12T06:30:25;19.30;1.40
2174;DHT22;1093;51.424;11.764;2023-08-12T06:32:53;19.40;1.40
2174;DHT22;1093;51.424;11.764;2023-08-12T06:35:20;19.50;1.40
2174;DHT22;1093;51.424;11.764;2023-08-12T06:37:47;19.60;1.40
2174;DHT22;1093;51.424;11.764;2023-08-12T06:40:14;19.70;1.40
2174;DHT22;1093;51.424;11.764;2023-08-12T06:42:40;19.80;1.40
2174;DHT22;1093;51.424;11.764;2023-08-12T06:45:08;19.90;1.40
2174;DHT22;1093;51.424;11.764;2023-08-12T06:47:35;19.90;1.40
2174;DHT22;1093;51.424;11.764;2023-08-12T06:50:04;20.00;1.40
2174;DHT22;1093;51.424;11.764;2023-08-12T06:52:31;20.10;1.40
2174;DHT22;1093;51.424;11.764;2023-08-12T06:54:58;20.20;1.40
2174;DHT22;1093;51.424;11.764;2023-08-12T06:57:25;20.40;1.40
2174;DHT22;1093;51.424;11.764;2023-08-12T06:59:52;20.50;1.40
2174;DHT22;1093;51.424;11.764;2023-08-12T07:02:18;20.60;1.40
2174;DHT22;1093;51.424;11.764;2023-08-12T07:04:45;20.70;1.40
2174;DHT22;1093;51.424;11.764;2023-08-12T07:07:14;20.80;1.40
2174;DHT22;1093;51.424;11.764;2023-08-12T07:09:41;20.90;1.40
2174;DHT22;1093;51.424;11.764;2023-08-12T07:12:08;20.90;1.40
2174;DHT22;1093;51.424;11.764;2023-08-12T07:14:35;21.10;1.40
2174;DHT22;1093;51.424;11.764;2023-08-12T07:17:02;21.20;1.40
2174;DHT22;1093;51.424;11.764;2023-08-12T07:19:29;21.30;1.40
2174;DHT22;1093;51.424;11.764;2023-08-12T07:21:56;21.30;1.40
2174;DHT22;1093;51.424;11.764;2023-08-12T07:24:24;21.30;1.40
2174;DHT22;1093;51.424;11.764;2023-08-12T07:26:50;21.30;1.40
2174;DHT22;1093;51.424;11.764;2023-08-12T07:29:17;21.30;1.40
2174;DHT22;1093;51.424;11.764;2023-08-12T07:31:44;21.30;1.40
2174;DHT22;1093;51.424;11.764;2023-08-12T07:34:11;21.30;1.40
2174;DHT22;1093;51.424;11.764;2023-08-12T07:36:38;21.30;1.40
2174;DHT22;1093;51.424;11.764;2023-08-12T07:39:05;21.30;1.40
2174;DHT22;1093;51.424;11.764;2023-08-12T07:41:34;21.30;1.40
2174;DHT22;1093;51.424;11.764;2023-08-12T07:44:00;21.30;1.40
2174;DHT22;1093;51.424;11.764;2023-08-12T07:46:28;21.30;1.40
2174;DHT22;1093;51.424;11.764;2023-08-12T07:48:55;21.30;1.40
2174;DHT22;1093;51.424;11.764;2023-08-12T07:51:21;21.30;1.40
2174;DHT22;1093;51.424;11.764;2023-08-12T07:53:48;21.30;1.40
2174;DHT22;1093;51.424;11.764;2023-08-12T07:56:15;21.30;1.40
2174;DHT22;1093;51.424;11.764;2023-08-12T07:58:44;21.30;1.40
2174;DHT22;1093;51.424;11.764;2023-08-12T08:01:11;21.30;1.40
2174;DHT22;1093;51.424;11.764;2023-08-12T08:03:39;21.30;1.40
2174;DHT22;1093;51.424;11.764;2023-08-12T08:06:06;21.30;1.40
2174;DHT22;1093;51.424;11.764;2023-08-12T08:08:32;21.30;1.40
2174;DHT22;1093;51.424;11.764;2023-08-12T08:10:59;21.40;1.40
2174;DHT22;1093;51.424;11.764;2023-08-12T08:13:26;21.40;1.40
2174;DHT22;1093;51.424;11.764;2023-08-12T08:15:54;21.40;1.40
2174;DHT22;1093;51.424;11.764;2023-08-12T08:18:22;21.50;1.40
2174;DHT22;1093;51.424;11.764;2023-08-12T08:20:48;21.50;1.40
2174;DHT22;1093;51.424;11.764;2023-08-12T08:23:15;21.60;1.40
2174;DHT22;1093;51.424;11.764;2023-08-12T08:25:42;21.60;1.40
2174;DHT22;1093;51.424;11.764;2023-08-12T08:28:09;21.60;1.40
2174;DHT22;1093;51.424;11.764;2023-08-12T08:30:36;21.70;1.40
2174;DHT22;1093;51.424;11.764;2023-08-12T08:33:05;21.70;1.40
2174;DHT22;1093;51.424;11.764;2023-08-12T08:35:32;21.70;1.40
2174;DHT22;1093;51.424;11.764;2023-08-12T08:37:59;21.70;1.40
2174;DHT22;1093;51.424;11.764;2023-08-12T08:40:26;21.70;1.40
2174;DHT22;1093;51.424;11.764;2023-08-12T08:42:53;21.70;1.40
2174;DHT22;1093;51.424;11.764;2023-08-12T08:45:21;21.80;1.40
2174;DHT22;1093;51.424;11.764;2023-08-12T08:47:49;21.80;1.40
2174;DHT22;1093;51.424;11.764;2023-08-12T08:50:21;21.90;1.40
2174;DHT22;1093;51.424;11.764;2023-08-12T08:52:50;22.00;1.40
2174;DHT22;1093;51.424;11.764;2023-08-12T08:55:18;22.00;1.40
2174;DHT22;1093;51.424;11.764;2023-08-12T08:57:45;22.10;1.40
2174;DHT22;1093;51.424;11.764;2023-08-12T09:00:12;22.20;1.40
2174;DHT22;1093;51.424;11.764;2023-08-12T09:02:40;22.20;1.40
2174;DHT22;1093;51.424;11.764;2023-08-12T09:05:10;22.20;1.40
2174;DHT22;1093;51.424;11.764;2023-08-12T09:07:40;22.30;1.40
2174;DHT22;1093;51.424;11.764;2023-08-12T09:10:07;22.30;1.40
2174;DHT22;1093;51.424;11.764;2023-08-12T09:12:36;22.40;1.40
2174;DHT22;1093;51.424;11.764;2023-08-12T09:15:03;22.40;1.40
2174;DHT22;1093;51.424;11.764;2023-08-12T09:17:32;22.50;1.40
2174;DHT22;1093;51.424;11.764;2023-08-12T09:19:59;22.50;1.40
2174;DHT22;1093;51.424;11.764;2023-08-12T09:22:26;22.50;1.40
2174;DHT22;1093;51.424;11.764;2023-08-12T09:24:58;22.50;1.40
2174;DHT22;1093;51.424;11.764;2023-08-12T09:27:24;22.60;1.40
2174;DHT22;1093;51.424;11.764;2023-08-12T09:29:56;22.50;1.40
2174;DHT22;1093;51.424;11.764;2023-08-12T09:32:23;22.60;1.40
2174;DHT22;1093;51.424;11.764;2023-08-12T09:34:51;22.60;1.40
2174;DHT22;1093;51.424;11.764;2023-08-12T09:37:18;22.60;1.40
2174;DHT22;1093;51.424;11.764;2023-08-12T09:39:46;22.60;1.40
2174;DHT22;1093;51.424;11.764;2023-08-12T09:42:15;22.60;1.40
2174;DHT22;1093;51.424;11.764;2023-08-12T09:44:43;22.50;1.40
2174;DHT22;1093;51.424;11.764;2023-08-12T09:47:10;22.60;1.40
2174;DHT22;1093;51.424;11.764;2023-08-12T09:49:38;22.50;1.40
2174;DHT22;1093;51.424;11.764;2023-08-12T09:52:06;22.50;1.40
2174;DHT22;1093;51.424;11.764;2023-08-12T09:54:34;22.50;1.40
2174;DHT22;1093;51.424;11.764;2023-08-12T09:57:04;22.50;1.40
2174;DHT22;1093;51.424;11.764;2023-08-12T09:59:36;22.60;1.40
2174;DHT22;1093;51.424;11.764;2023-08-12T10:02:05;22.70;1.40
2174;DHT22;1093;51.424;11.764;2023-08-12T10:04:37;22.70;1.40
2174;DHT22;1093;51.424;11.764;2023-08-12T10:07:06;22.80;1.40
2174;DHT22;1093;51.424;11.764;2023-08-12T10:09:35;22.80;1.40
2174;DHT22;1093;51.424;11.764;2023-08-12T10:12:03;22.90;1.40
2174;DHT22;1093;51.424;11.764;2023-08-12T10:14:31;23.00;1.40
2174;DHT22;1093;51.424;11.764;2023-08-12T10:17:00;23.10;1.40
2174;DHT22;1093;51.424;11.764;2023-08-12T10:19:27;23.20;1.40
2174;DHT22;1093;51.424;11.764;2023-08-12T10:21:56;23.30;1.40
2174;DHT22;1093;51.424;11.764;2023-08-12T10:24:24;23.40;1.40
2174;DHT22;1093;51.424;11.764;2023-08-12T10:26:53;23.40;1.40
2174;DHT22;1093;51.424;11.764;2023-08-12T10:29:20;23.50;1.40
2174;DHT22;1093;51.424;11.764;2023-08-12T10:31:47;23.70;1.40
2174;DHT22;1093;51.424;11.764;2023-08-12T10:34:22;23.80;1.40
2174;DHT22;1093;51.424;11.764;2023-08-12T10:36:56;24.00;1.40
2174;DHT22;1093;51.424;11.764;2023-08-12T10:39:26;24.10;1.40
2174;DHT22;1093;51.424;11.764;2023-08-12T10:41:54;24.20;1.40
2174;DHT22;1093;51.424;11.764;2023-08-12T10:44:26;24.40;1.40
2174;DHT22;1093;51.424;11.764;2023-08-12T10:46:53;24.50;1.40
2174;DHT22;1093;51.424;11.764;2023-08-12T10:49:25;24.60;1.40
2174;DHT22;1093;51.424;11.764;2023-08-12T10:51:53;24.70;1.40
2174;DHT22;1093;51.424;11.764;2023-08-12T10:54:24;24.90;1.40
2174;DHT22;1093;51.424;11.764;2023-08-12T10:57:05;25.00;1.40
2174;DHT22;1093;51.424;11.764;2023-08-12T10:59:53;25.10;1.40
2174;DHT22;1093;51.424;11.764;2023-08-12T11:02:27;25.20;1.40
2174;DHT22;1093;51.424;11.764;2023-08-12T11:04:58;25.40;1.40
2174;DHT22;1093;51.424;11.764;2023-08-12T11:07:32;25.50;1.40
2174;DHT22;1093;51.424;11.764;2023-08-12T11:10:03;25.60;1.40
2174;DHT22;1093;51.424;11.764;2023-08-12T11:12:32;25.70;1.40
2174;DHT22;1093;51.424;11.764;2023-08-12T11:15:00;25.90;1.40
2174;DHT22;1093;51.424;11.764;2023-08-12T11:17:32;26.10;1.40
2174;DHT22;1093;51.424;11.764;2023-08-12T11:20:03;26.30;1.40
2174;DHT22;1093;51.424;11.764;2023-08-12T11:22:31;26.40;1.40
2174;DHT22;1093;51.424;11.764;2023-08-12T11:24:59;26.60;1.40
2174;DHT22;1093;51.424;11.764;2023-08-12T11:27:28;26.80;1.40
2174;DHT22;1093;51.424;11.764;2023-08-12T11:29:55;26.90;1.40
2174;DHT22;1093;51.424;11.764;2023-08-12T11:32:22;27.10;1.40
2174;DHT22;1093;51.424;11.764;2023-08-12T11:34:49;27.20;1.40
2174;DHT22;1093;51.424;11.764;2023-08-12T11:37:19;27.30;1.40
2174;DHT22;1093;51.424;11.764;2023-08-12T11:39:46;27.60;1.40
2174;DHT22;1093;51.424;11.764;2023-08-12T11:42:13;27.60;1.40
2174;DHT22;1093;51.424;11.764;2023-08-12T11:44:40;27.80;1.40
2174;DHT22;1093;51.424;11.764;2023-08-12T11:47:07;27.90;1.40
2174;DHT22;1093;51.424;11.764;2023-08-12T11:49:34;28.00;1.40
2174;DHT22;1093;51.424;11.764;2023-08-12T11:52:01;28.20;1.40
2174;DHT22;1093;51.424;11.764;2023-08-12T11:54:30;28.30;1.40
2174;DHT22;1093;51.424;11.764;2023-08-12T11:56:58;28.40;1.40
2174;DHT22;1093;51.424;11.764;2023-08-12T11:59:25;28.60;1.40
2174;DHT22;1093;51.424;11.764;2023-08-12T12:01:54;28.60;1.40
2174;DHT22;1093;51.424;11.764;2023-08-12T12:04:22;28.80;1.40
2174;DHT22;1093;51.424;11.764;2023-08-12T12:06:49;28.90;1.40
2174;DHT22;1093;51.424;11.764;2023-08-12T12:09:17;28.90;1.40
2174;DHT22;1093;51.424;11.764;2023-08-12T12:11:52;29.00;1.40
2174;DHT22;1093;51.424;11.764;2023-08-12T12:14:20;29.20;1.40
2174;DHT22;1093;51.424;11.764;2023-08-12T12:16:48;29.30;1.40
2174;DHT22;1093;51.424;11.764;2023-08-12T12:19:17;29.30;1.40
2174;DHT22;1093;51.424;11.764;2023-08-12T12:21:46;29.30;1.40
2174;DHT22;1093;51.424;11.764;2023-08-12T12:24:13;29.50;1.40
2174;DHT22;1093;51.424;11.764;2023-08-12T12:26:40;29.60;1.40
2174;DHT22;1093;51.424;11.764;2023-08-12T12:29:09;29.70;1.40
2174;DHT22;1093;51.424;11.764;2023-08-12T12:31:37;29.80;1.40
2174;DHT22;1093;51.424;11.764;2023-08-12T12:34:05;29.90;1.40
2174;DHT22;1093;51.424;11.764;2023-08-12T12:36:34;29.90;1.40
2174;DHT22;1093;51.424;11.764;2023-08-12T12:39:01;30.10;1.40
2174;DHT22;1093;51.424;11.764;2023-08-12T12:41:28;30.10;1.40
2174;DHT22;1093;51.424;11.764;2023-08-12T12:43:55;30.20;1.40
2174;DHT22;1093;51.424;11.764;2023-08-12T12:46:23;30.20;1.40
2174;DHT22;1093;51.424;11.764;2023-08-12T12:48:50;30.30;1.40
2174;DHT22;1093;51.424;11.764;2023-08-12T12:51:17;30.30;1.40
2174;DHT22;1093;51.424;11.764;2023-08-12T12:53:44;30.30;1.40
2174;DHT22;1093;51.424;11.764;2023-08-12T12:56:10;30.50;1.40
2174;DHT22;1093;51.424;11.764;2023-08-12T12:58:37;30.70;1.40
2174;DHT22;1093;51.424;11.764;2023-08-12T13:01:05;30.70;1.40
2174;DHT22;1093;51.424;11.764;2023-08-12T13:03:34;30.80;1.40
2174;DHT22;1093;51.424;11.764;2023-08-12T13:06:01;30.90;1.40
2174;DHT22;1093;51.424;11.764;2023-08-12T13:08:29;30.90;1.40
2174;DHT22;1093;51.424;11.764;2023-08-12T13:10:57;31.00;1.40
2174;DHT22;1093;51.424;11.764;2023-08-12T13:13:24;31.10;1.40
2174;DHT22;1093;51.424;11.764;2023-08-12T13:15:51;31.30;1.40
2174;DHT22;1093;51.424;11.764;2023-08-12T13:18:18;31.50;1.40
2174;DHT22;1093;51.424;11.764;2023-08-12T13:20:46;31.50;1.40
2174;DHT22;1093;51.424;11.764;2023-08-12T13:23:14;31.60;1.40
2174;DHT22;1093;51.424;11.764;2023-08-12T13:25:41;31.70;1.40
2174;DHT22;1093;51.424;11.764;2023-08-12T13:28:08;31.70;1.40
2174;DHT22;1093;51.424;11.764;2023-08-12T13:30:35;31.90;1.40
2174;DHT22;1093;51.424;11.764;2023-08-12T13:33:03;32.00;1.40
2174;DHT22;1093;51.424;11.764;2023-08-12T13:35:30;32.10;1.40
2174;DHT22;1093;51.424;11.764;2023-08-12T13:37:59;32.20;1.40
2174;DHT22;1093;51.424;11.764;2023-08-12T13:40:26;32.40;1.40
2174;DHT22;1093;51.424;11.764;2023-08-12T13:42:53;32.40;1.40
2174;DHT22;1093;51.424;11.764;2023-08-12T13:45:20;32.50;1.40
2174;DHT22;1093;51.424;11.764;2023-08-12T13:47:47;32.70;1.40
2174;DHT22;1093;51.424;11.764;2023-08-12T13:50:14;32.70;1.40
2174;DHT22;1093;51.424;11.764;2023-08-12T13:52:41;32.80;1.40
2174;DHT22;1093;51.424;11.764;2023-08-12T13:55:09;32.90;1.40
2174;DHT22;1093;51.424;11.764;2023-08-12T13:57:36;32.90;1.40
2174;DHT22;1093;51.424;11.764;2023-08-12T14:00:04;33.00;1.40
2174;DHT22;1093;51.424;11.764;2023-08-12T14:02:35;32.90;1.40
2174;DHT22;1093;51.424;11.764;2023-08-12T14:05:02;32.90;1.40
2174;DHT22;1093;51.424;11.764;2023-08-12T14:07:29;32.90;1.40
2174;DHT22;1093;51.424;11.764;2023-08-12T14:09:56;32.90;1.40
2174;DHT22;1093;51.424;11.764;2023-08-12T14:12:24;32.80;1.40
2174;DHT22;1093;51.424;11.764;2023-08-12T14:14:51;32.70;1.40
2174;DHT22;1093;51.424;11.764;2023-08-12T14:17:18;32.60;1.40
2174;DHT22;1093;51.424;11.764;2023-08-12T14:19:49;32.50;1.40
2174;DHT22;1093;51.424;11.764;2023-08-12T14:22:16;32.40;1.40
2174;DHT22;1093;51.424;11.764;2023-08-12T14:24:42;32.30;1.40
2174;DHT22;1093;51.424;11.764;2023-08-12T14:27:10;32.20;1.40
2174;DHT22;1093;51.424;11.764;2023-08-12T14:29:39;32.10;1.40
2174;DHT22;1093;51.424;11.764;2023-08-12T14:32:06;32.00;1.40
2174;DHT22;1093;51.424;11.764;2023-08-12T14:34:33;31.90;1.40
2174;DHT22;1093;51.424;11.764;2023-08-12T14:37:02;31.70;1.40
2174;DHT22;1093;51.424;11.764;2023-08-12T14:39:29;31.60;1.40
2174;DHT22;1093;51.424;11.764;2023-08-12T14:41:56;31.50;1.40
2174;DHT22;1093;51.424;11.764;2023-08-12T14:44:23;31.30;1.40
2174;DHT22;1093;51.424;11.764;2023-08-12T14:46:51;31.30;1.40
2174;DHT22;1093;51.424;11.764;2023-08-12T14:49:18;31.10;1.40
2174;DHT22;1093;51.424;11.764;2023-08-12T14:51:46;31.00;1.40
2174;DHT22;1093;51.424;11.764;2023-08-12T14:54:13;31.00;1.40
2174;DHT22;1093;51.424;11.764;2023-08-12T14:56:40;30.80;1.40
2174;DHT22;1093;51.424;11.764;2023-08-12T14:59:06;30.70;1.40
2174;DHT22;1093;51.424;11.764;2023-08-12T15:01:33;30.60;1.40
2174;DHT22;1093;51.424;11.764;2023-08-12T15:04:02;30.50;1.40
2174;DHT22;1093;51.424;11.764;2023-08-12T15:06:28;30.40;1.40
2174;DHT22;1093;51.424;11.764;2023-08-12T15:08:55;30.30;1.40
2174;DHT22;1093;51.424;11.764;2023-08-12T15:11:22;30.20;1.40
2174;DHT22;1093;51.424;11.764;2023-08-12T15:13:49;30.10;1.40
2174;DHT22;1093;51.424;11.764;2023-08-12T15:16:16;30.00;1.40
2174;DHT22;1093;51.424;11.764;2023-08-12T15:18:43;29.80;1.40
2174;DHT22;1093;51.424;11.764;2023-08-12T15:21:11;29.70;1.40
2174;DHT22;1093;51.424;11.764;2023-08-12T15:23:38;29.60;1.40
2174;DHT22;1093;51.424;11.764;2023-08-12T15:26:04;29.50;1.40
2174;DHT22;1093;51.424;11.764;2023-08-12T15:28:31;29.40;1.40
2174;DHT22;1093;51.424;11.764;2023-08-12T15:30:58;29.20;1.40
2174;DHT22;1093;51.424;11.764;2023-08-12T15:33:25;29.10;1.40
2174;DHT22;1093;51.424;11.764;2023-08-12T15:35:52;29.00;1.40
2174;DHT22;1093;51.424;11.764;2023-08-12T15:38:20;28.80;1.40
2174;DHT22;1093;51.424;11.764;2023-08-12T15:40:47;28.70;1.40
2174;DHT22;1093;51.424;11.764;2023-08-12T15:43:14;28.50;1.40
2174;DHT22;1093;51.424;11.764;2023-08-12T15:45:41;28.40;1.40
2174;DHT22;1093;51.424;11.764;2023-08-12T15:48:08;28.20;1.40
2174;DHT22;1093;51.424;11.764;2023-08-12T15:50:35;28.10;1.40
2174;DHT22;1093;51.424;11.764;2023-08-12T15:53:02;28.10;1.40
2174;DHT22;1093;51.424;11.764;2023-08-12T15:55:30;28.00;1.40
2174;DHT22;1093;51.424;11.764;2023-08-12T15:57:57;27.80;1.40
2174;DHT22;1093;51.424;11.764;2023-08-12T16:00:24;27.80;1.40
2174;DHT22;1093;51.424;11.764;2023-08-12T16:02:51;27.60;1.40
2174;DHT22;1093;51.424;11.764;2023-08-12T16:05:18;27.40;1.40